Bandaranaike International Colombo Airport
VCBI : now visible

Airfield :











YOU CAN JOIN US ON...

 
LOGIN :

Register | Disclaimer

   EN    FR    IT 

 









Legend :    VFR   Marginal VFR   IFR   Intensive IFR   Very Intensive IFR
Visi :
Ceiling :
>= 8 km
>= 3000ft
5 to 8 km
1000 to 3000 ft
1500m to 5 km
500 to 1000 ft
800 to 1500m
200 to 500 ft
< 800m
< 200 ft
Symbols :   Thunderstorms  Fog  Heavy snow  Heavy precipitations  Wind > 20 kt






- Airport Elevation : 30 ft
- IATA code : CMB


VCBI - Bandaranaike International Colombo

CURRENT METAR :
  • 131610Z 20006KT 9999 SCT016 26/24 Q1010 NOSIG

EXPIRED METARs :
  • 131510Z 17006KT 130V200 9999 FEW012 BKN016 26/25 Q1009 NOSIG
  • 131410Z 16004KT 130V230 9000 -SHRA FEW012 BKN016 26/25 Q1009 NOSIG
  • 131310Z 24004KT 210V280 9999 SCT016 OVC080 27/25 Q1008 NOSIG
  • 131210Z 26006KT 220V010 9999 SCT016 OVC080 28/25 Q1008 NOSIG

TAF TAF VCBI
Valid from the 13 at 12:00 until the 14 at 18:00 UTC


131100Z 1312/1418 25008KT 9999 BKN016 TX31/1407Z TN25/1400Z
PROB30
TEMPO 1312/1318 5000 -TSRA/SHRA FEW012 BKN016 FEW020CB
VCCC FIR / Asia



MET'MAP, your aeronautical weather chart ! - Copyright ORBIFLY December 2007 - Disclaimer

ORBIFLY MET'MAP TEAM :

Programming & Development : Alexandra Zaïnal
Original concept : Baudouin d'Aumeries
Technical & hardware support : Manuel Goepfert
Assistance : Marc-Olivier Méhu




SOURCES & CREDITS :

   NOAA       Earth
Advisory